Latest Coastal Weather Observations for Neptune Island

IDT60701

Issued at 10:15 pm EDT Monday 20 October 2014 (issued every 10 minutes, with the page automatically refreshed every 10 minutes)

About coastal observations | Map of coastal stations | Coastal observations for TAS | Marine services | Other Formats
Station Details ID: 018115 Name: NEPTUNE ISLAND Lat: -35.34 Lon: 136.12 Height: 32.0 m
Data from the previous 72 hours. | See also: Recent months at Neptune Island
Date/Time
EDT
Temp

°C
Wind Pressure Rain
since 9am
mm
Weather Cloud Vis
km
Sea
Height
m
Swell
Dir
 
Speed
knots
Gust
knots
hPa Trend Height
m
Period
s
Dir
20/10:00pm 17.0 E 18 23 1019.1 - 0.0 - - - - - - -
20/09:30pm 17.1 E 20 23 1019.0 - 0.0 - - - - - - -
20/09:00pm 17.3 E 20 24 1018.6 - 0.0 - - - - - - -
20/08:30pm 17.5 E 20 23 1018.5 - 0.0 - - - - - - -
20/08:00pm 17.7 E 18 21 1018.3 - 0.0 - - - - - - -
20/07:30pm 18.0 E 19 22 1018.1 - 0.0 - - - - - - -
20/07:00pm 18.2 E 18 22 1018.2 - 0.0 - - - - - - -
20/06:30pm 18.7 E 18 21 1018.4 - 0.0 - - - - - - -
20/06:00pm 19.4 E 17 20 1018.6 - 0.0 - - - - - - -
20/05:30pm 19.6 E 16 20 1018.8 - 0.0 - - - - - - -
20/05:00pm 19.7 E 19 23 1018.9 - 0.0 - - - - - - -
20/04:30pm 19.5 E 20 25 1019.3 - 0.0 - - - - - - -
20/04:00pm 18.6 E 21 25 1019.6 - 0.0 - - - - - - -
20/03:30pm 19.4 E 20 25 1019.9 - 0.0 - - - - - - -
20/03:00pm 18.7 E 23 27 1020.2 - 0.0 - - - - - - -
20/02:30pm 18.8 E 22 27 1020.6 - 0.0 - - - - - - -
20/02:00pm 18.5 E 24 29 1021.1 - 0.0 - - - - - - -
20/01:30pm 18.2 E 21 27 1021.5 - 0.0 - - - - - - -
20/01:00pm 17.9 E 24 30 1021.9 - 0.0 - - - - - - -
20/12:30pm 17.2 E 26 31 1022.2 - 0.0 - - - - - - -
20/12:00pm 17.2 E 25 31 1022.7 - 0.0 - - - - - - -
20/11:30am 16.6 E 26 31 1022.9 - 0.0 - - - - - - -
20/11:00am 16.1 E 26 33 1023.2 - 0.0 - - - - - - -
20/10:30am 16.0 E 27 32 1023.2 - 0.0 - - - - - - -
20/10:00am 16.0 E 27 33 1023.0 - 0.0 - - - - - - -
20/09:30am 15.2 E 28 35 1022.8 - 0.0 - - - - - - -
20/09:00am 14.7 E 28 32 1022.8 - 0.0 - - - - - - -
20/08:43am 14.5 E 25 35 1022.7 - 0.0 - - - - - - -
20/08:30am 14.6 E 28 33 1022.9 - 0.0 - - - - - - -
20/08:00am 14.4 E 26 32 1022.8 - 0.0 - - - - - - -
20/07:30am 14.3 E 26 32 1022.3 - 0.0 - - - - - - -
20/07:00am 14.3 E 26 32 1022.3 - 0.0 - - - - - - -
20/06:30am 14.4 E 25 31 1021.8 - 0.0 - - - - - - -
20/06:00am 14.5 E 23 28 1022.2 - 0.0 - - - - - - -
20/05:30am 14.5 E 23 29 1022.5 - 0.0 - - - - - - -
20/05:00am 14.4 E 24 31 1022.0 - 0.0 - - - - - - -
20/04:30am 14.3 E 25 32 1022.0 - 0.0 - - - - - - -
20/04:00am 14.3 E 25 30 1021.9 - 0.0 - - - - - - -
20/03:30am 14.4 E 23 29 1022.1 - 0.0 - - - - - - -
20/03:00am 14.4 ESE 24 29 1022.2 - 0.0 - - - - - - -
20/02:30am 14.4 ESE 23 29 1022.5 - 0.0 - - - - - - -
20/02:00am 14.5 ESE 23 28 1022.6 - 0.0 - - - - - - -
20/01:30am 14.5 E 22 27 1022.2 - 0.0 - - - - - - -
20/01:00am 14.5 E 23 28 1022.5 - 0.0 - - - - - - -
20/12:30am 14.7 E 21 26 1022.8 - 0.0 - - - - - - -
20/12:00am 14.8 E 22 27 1022.9 - 0.0 - - - - - - -
 
Date/Time
EDT
Temp

°C
Wind Pressure Rain
since 9am
mm
Weather Cloud Vis
km
Sea
Height
m
Swell
Dir
 
Speed
knots
Gust
knots
hPa Trend Height
m
Period
s
Dir
19/11:30pm 14.8 E 23 29 1023.1 - 0.0 - - - - - - -
19/11:00pm 14.9 ESE 25 29 1023.1 - 0.0 - - - - - - -
19/10:30pm 15.1 E 23 27 1023.0 - 0.0 - - - - - - -
19/10:00pm 15.2 E 25 29 1022.8 - 0.0 - - - - - - -
19/09:30pm 15.6 ESE 19 23 1022.8 - 0.0 - - - - - - -
19/09:00pm 15.7 ESE 22 27 1022.3 - 0.0 - - - - - - -
19/08:30pm 16.0 ESE 22 26 1022.0 - 0.0 - - - - - - -
19/08:00pm 16.4 ESE 20 26 1021.8 - 0.0 - - - - - - -
19/07:30pm 16.5 ESE 19 23 1021.4 - 0.0 - - - - - - -
19/07:00pm 16.6 ESE 21 25 1021.1 - 0.0 - - - - - - -
19/06:30pm 16.9 SE 24 29 1021.0 - 0.0 - - - - - - -
19/06:00pm 17.0 SE 23 30 1020.9 - 0.0 - - - - - - -
19/05:30pm 17.3 SE 23 28 1020.8 - 0.0 - - - - - - -
19/05:00pm 17.6 SE 24 31 1020.5 - 0.0 - - - - - - -
19/04:30pm 17.3 SSE 27 33 1020.3 - 0.0 - - - - - - -
19/04:00pm 17.3 SSE 27 33 1020.4 - 0.0 - - - - - - -
19/03:30pm 17.0 SSE 26 35 1020.4 - 0.0 - - - - - - -
19/03:00pm 17.1 SSE 22 30 1020.5 - 0.0 - - - - - - -
19/02:30pm 17.3 SSE 24 29 1020.5 - 0.0 - - - - - - -
19/02:00pm 17.5 SSE 19 25 1020.5 - 0.0 - - - - - - -
19/01:30pm 18.3 SSE 17 22 1020.1 - 0.0 - - - - - - -
19/01:00pm 17.6 SSE 21 25 1020.1 - 0.0 - - - - - - -
19/12:30pm 17.3 SSE 21 25 1020.2 - 0.0 - - - - - - -
19/12:00pm 16.4 SSE 23 28 1020.4 - 0.0 - - - - - - -
19/11:30am 16.9 S 24 27 1020.5 - 0.0 - - - - - - -
19/11:00am 17.5 S 17 21 1020.3 - 0.0 - - - - - - -
19/10:30am 18.3 E 6 15 1020.0 - 0.0 - - - - - - -
19/10:00am 17.7 E 6 7 1019.4 - 0.0 - - - - - - -
19/09:30am 17.9 SE 7 7 1019.2 - 0.0 - - - - - - -
19/09:00am 17.2 ESE 8 9 1018.5 - 0.0 - - - - - - -
19/08:30am 16.7 E 7 11 1017.9 - 0.0 - - - - - - -
19/08:00am 16.2 SE 10 12 1017.8 - 0.0 - - - - - - -
19/07:30am 15.8 SE 10 12 1017.6 - 0.0 - - - - - - -
19/07:00am 15.9 SE 11 13 1016.9 - 0.0 - - - - - - -
19/06:30am 16.0 SE 9 10 1016.3 - 0.0 - - - - - - -
19/06:00am 16.3 E 11 12 1015.8 - 0.0 - - - - - - -
19/05:30am 16.0 E 9 11 1015.9 - 0.0 - - - - - - -
19/05:00am 16.0 E 9 11 1015.8 - 0.0 - - - - - - -
19/04:30am 16.0 E 12 13 1015.3 - 0.0 - - - - - - -
19/04:00am 15.9 ESE 9 11 1015.7 - 0.0 - - - - - - -
19/03:30am 15.9 SE 7 9 1016.2 - 0.0 - - - - - - -
19/03:00am 16.1 SSE 6 7 1016.9 - 0.0 - - - - - - -
19/02:30am 16.0 E 7 8 1016.9 - 0.0 - - - - - - -
19/02:00am 15.9 E 11 13 1016.8 - 0.0 - - - - - - -
19/01:30am 15.8 ESE 10 11 1017.2 - 0.0 - - - - - - -
19/01:00am 15.9 SE 11 12 1017.2 - 0.0 - - - - - - -
19/12:30am 16.0 SSE 9 10 1017.3 - 0.0 - - - - - - -
19/12:00am 16.0 SSE 10 13 1017.5 - 0.0 - - - - - - -
 
Date/Time
EDT
Temp

°C
Wind Pressure Rain
since 9am
mm
Weather Cloud Vis
km
Sea
Height
m
Swell
Dir
 
Speed
knots
Gust
knots
hPa Trend Height
m
Period
s
Dir
18/11:30pm 16.0 SSE 10 11 1017.9 - 0.0 - - - - - - -
18/11:00pm 16.0 S 8 9 1018.5 - 0.0 - - - - - - -
18/10:30pm 16.1 SE 6 7 1018.8 - 0.0 - - - - - - -
18/10:00pm 15.8 E 8 9 1018.8 - 0.0 - - - - - - -
18/09:30pm 16.0 E 8 10 1018.4 - 0.0 - - - - - - -
18/09:00pm 16.2 ESE 8 11 1018.0 - 0.0 - - - - - - -
18/08:30pm 16.3 ESE 6 10 1018.0 - 0.0 - - - - - - -
18/08:00pm 16.9 ESE 10 13 1017.7 - 0.0 - - - - - - -
18/07:30pm 17.2 S 11 13 1017.3 - 0.0 - - - - - - -
18/07:00pm 18.0 SSW 15 18 1017.1 - 0.0 - - - - - - -
18/06:30pm 18.6 SW 12 15 1017.1 - 0.0 - - - - - - -
18/06:00pm 19.5 WSW 11 14 1016.9 - 0.0 - - - - - - -
18/05:30pm 20.2 W 10 14 1017.0 - 0.0 - - - - - - -
18/05:00pm 21.0 W 10 14 1017.1 - 0.0 - - - - - - -
18/04:30pm 20.1 W 13 15 1017.0 - 0.0 - - - - - - -
18/04:00pm 21.6 WNW 17 22 1016.9 - 0.0 - - - - - - -
18/03:30pm 21.3 WNW 19 23 1017.1 - 0.0 - - - - - - -
18/03:00pm 21.5 WNW 18 22 1017.4 - 0.0 - - - - - - -
18/02:30pm 22.2 WNW 21 25 1017.6 - 0.0 - - - - - - -
18/02:00pm 22.2 WNW 22 25 1017.6 - 0.0 - - - - - - -
18/01:30pm 23.6 WNW 19 23 1017.8 - 0.0 - - - - - - -
18/01:00pm 24.5 NNW 12 17 1018.1 - 0.0 - - - - - - -
18/12:30pm 24.5 NNW 13 16 1018.2 - 0.0 - - - - - - -
18/12:00pm 23.5 N 15 18 1017.9 - 0.0 - - - - - - -
18/11:30am 22.8 N 16 19 1017.8 - 0.0 - - - - - - -
18/11:00am 21.5 N 17 20 1017.6 - 0.0 - - - - - - -
18/10:30am 20.7 N 19 22 1017.3 - 0.0 - - - - - - -
18/10:00am 18.8 N 18 22 1017.2 - 0.0 - - - - - - -
18/09:30am 17.7 N 19 20 1016.7 - 0.0 - - - - - - -
18/09:00am 17.8 N 19 21 1016.9 - 0.0 - - - - - - -
18/08:30am 17.6 N 17 18 1017.2 - 0.0 - - - - - - -
18/08:00am 17.0 N 18 19 1016.9 - 0.0 - - - - - - -
18/07:30am 16.8 N 19 21 1016.7 - 0.0 - - - - - - -
18/07:00am 16.9 N 19 21 1016.5 - 0.0 - - - - - - -
18/06:30am 17.0 NNE 21 23 1015.8 - 0.0 - - - - - - -
18/06:00am 17.1 NNE 21 24 1015.5 - 0.0 - - - - - - -
18/05:30am 17.0 NNE 20 23 1015.8 - 0.0 - - - - - - -
18/05:00am 17.0 NNE 21 24 1015.7 - 0.0 - - - - - - -
18/04:30am 16.7 NNE 18 20 1016.0 - 0.0 - - - - - - -
18/04:00am 16.7 NNE 17 19 1016.3 - 0.0 - - - - - - -
18/03:30am 16.8 NNE 17 18 1016.6 - 0.0 - - - - - - -
18/03:00am 17.1 NNE 14 18 1017.1 - 0.0 - - - - - - -
18/02:30am 17.2 NNE 13 18 1017.1 - 0.0 - - - - - - -
18/02:00am 17.0 NNE 13 17 1017.2 - 0.0 - - - - - - -
18/01:30am 17.3 NNE 14 19 1017.5 - 0.0 - - - - - - -
18/01:00am 17.5 NNE 14 18 1017.9 - 0.0 - - - - - - -
18/12:30am 17.6 NE 14 18 1018.2 - 0.0 - - - - - - -
18/12:00am 17.5 NE 13 17 1018.2 - 0.0 - - - - - - -
 
Date/Time
EDT
Temp

°C
Wind Pressure Rain
since 9am
mm
Weather Cloud Vis
km
Sea
Height
m
Swell
Dir
 
Speed
knots
Gust
knots
hPa Trend Height
m
Period
s
Dir
17/11:30pm 17.3 NE 13 15 1018.5 - 0.0 - - - - - - -
17/11:00pm 17.0 NNE 10 14 1018.5 - 0.0 - - - - - - -

Other Formats:

Comma delimited format used in spreadsheet applications
http://www.bom.gov.au/fwo/IDT60701/IDT60701.94804.axf

JavaScript Object Notation format (JSON) in row-major order
http://www.bom.gov.au/fwo/IDT60701/IDT60701.94804.json